createdAt,value
2023-01-27T00:01:48.036Z,25.4
2023-01-27T00:06:40.306Z,25.5
2023-01-27T00:11:31.848Z,25.1
2023-01-27T00:16:23.583Z,25.1
2023-01-27T00:21:15.111Z,25.4
2023-01-27T00:26:07.027Z,25.4
2023-01-27T00:31:14.697Z,25.1
2023-01-27T00:36:21.849Z,25.1
2023-01-27T00:41:13.621Z,25.4
2023-01-27T00:46:04.963Z,25.3
2023-01-27T00:51:10.724Z,24.9
2023-01-27T00:56:01.754Z,25.1
2023-01-27T01:01:08.665Z,25.4
2023-01-27T01:06:15.500Z,25.4
2023-01-27T01:11:22.794Z,25.1
2023-01-27T01:16:30.380Z,25.3
2023-01-27T01:21:36.786Z,25.1
2023-01-27T01:26:43.456Z,24.8
2023-01-27T01:32:07.238Z,25.1
2023-01-27T01:37:29.361Z,25.2
2023-01-27T01:42:54.699Z,24.8
2023-01-27T01:48:17.536Z,24.9
2023-01-27T01:53:39.153Z,25.3
2023-01-27T01:59:03.423Z,24.9
2023-01-27T02:04:26.636Z,24.8
2023-01-27T02:09:48.735Z,25.1
2023-01-27T02:15:11.521Z,24.9
2023-01-27T02:20:18.977Z,24.7
2023-01-27T02:25:41.703Z,25
2023-01-27T02:30:49.300Z,25
2023-01-27T02:35:45.421Z,24.8
2023-01-27T02:41:07.825Z,24.8
2023-01-27T02:46:30.813Z,25.1
2023-01-27T02:51:53.427Z,24.8
2023-01-27T02:57:15.407Z,24.8
2023-01-27T03:02:37.730Z,25.1
2023-01-27T03:08:00.689Z,24.9
2023-01-27T03:13:23.183Z,24.6
2023-01-27T03:18:30.764Z,24.9
2023-01-27T03:23:53.145Z,25.2
2023-01-27T03:29:16.145Z,25.1
2023-01-27T03:34:24.421Z,24.9
2023-01-27T03:39:46.634Z,25.1
2023-01-27T03:45:09.294Z,24.8
2023-01-27T03:50:32.150Z,24.8
2023-01-27T03:55:54.828Z,25.1
2023-01-27T04:01:17.643Z,24.7
2023-01-27T04:06:40.315Z,24.8
2023-01-27T04:12:03.388Z,25.1
2023-01-27T04:17:26.626Z,24.8
2023-01-27T04:22:32.864Z,24.7
2023-01-27T04:27:58.317Z,25
2023-01-27T04:33:32.060Z,24.8
2023-01-27T04:38:44.420Z,24.6
2023-01-27T04:44:07.733Z,24.9
2023-01-27T04:49:15.189Z,24.9
2023-01-27T04:54:22.026Z,24.6
2023-01-27T04:59:29.593Z,24.8
2023-01-27T05:04:36.950Z,25
2023-01-27T05:09:45.465Z,24.7
2023-01-27T05:14:52.403Z,24.7
2023-01-27T05:19:59.910Z,25.1
2023-01-27T05:25:08.637Z,24.8
2023-01-27T05:30:30.864Z,24.6
2023-01-27T05:35:54.382Z,24.9
2023-01-27T05:41:01.146Z,25
2023-01-27T05:46:24.465Z,24.8
2023-01-27T05:51:48.890Z,24.9
2023-01-27T05:57:12.999Z,24.9
2023-01-27T06:02:05.174Z,24.5
2023-01-27T06:07:13.819Z,24.7
2023-01-27T06:12:21.042Z,24.9
2023-01-27T06:17:29.275Z,24.6
2023-01-27T06:22:36.051Z,24.6
2023-01-27T06:27:59.092Z,25
2023-01-27T06:33:35.188Z,24.7
2023-01-27T06:38:57.874Z,24.5
2023-01-27T06:44:20.766Z,24.9
2023-01-27T06:49:44.045Z,24.8
2023-01-27T06:55:06.819Z,24.5
2023-01-27T07:00:32.577Z,24.8
2023-01-27T07:05:57.469Z,24.8
2023-01-27T07:11:32.267Z,24.5
2023-01-27T07:16:56.685Z,24.9
2023-01-27T07:22:21.598Z,24.9
2023-01-27T07:27:39.197Z,24.5
2023-01-27T07:33:02.771Z,24.7
2023-01-27T07:38:27.899Z,25
2023-01-27T07:43:52.476Z,24.6
2023-01-27T07:48:59.344Z,24.7
2023-01-27T07:54:06.320Z,25
2023-01-27T07:59:29.423Z,25
2023-01-27T08:05:08.417Z,24.8
2023-01-27T08:10:34.370Z,25.1
2023-01-27T08:15:57.394Z,24.7
2023-01-27T08:21:20.527Z,24.6
2023-01-27T08:26:43.474Z,24.9
2023-01-27T08:32:06.885Z,24.7
2023-01-27T08:37:29.253Z,24.6
2023-01-27T08:42:54.338Z,24.9
2023-01-27T08:48:17.436Z,24.6
2023-01-27T08:53:39.932Z,24.6
2023-01-27T08:59:02.587Z,24.9
2023-01-27T09:04:26.425Z,24.8
2023-01-27T09:09:49.579Z,24.5
2023-01-27T09:15:21.870Z,24.9
2023-01-27T09:20:44.747Z,24.8
2023-01-27T09:26:07.439Z,24.5
2023-01-27T09:31:39.525Z,24.9
2023-01-27T09:37:02.520Z,24.9
2023-01-27T09:42:25.474Z,24.6
2023-01-27T09:47:50.447Z,24.8
2023-01-27T09:53:22.082Z,24.9
2023-01-27T09:58:44.575Z,24.5
2023-01-27T10:04:07.422Z,24.7
2023-01-27T10:09:30.696Z,25.1
2023-01-27T10:14:53.922Z,25.1
2023-01-27T10:20:16.798Z,24.9
2023-01-27T10:25:39.488Z,25.1
2023-01-27T10:31:01.705Z,24.7
2023-01-27T10:36:25.063Z,24.7
2023-01-27T10:41:47.886Z,25
2023-01-27T10:47:11.077Z,24.7
2023-01-27T10:52:33.902Z,24.6
2023-01-27T10:57:55.965Z,25
2023-01-27T11:04:22.814Z,24.8
2023-01-27T11:09:45.070Z,24.6
2023-01-27T11:15:08.258Z,25
2023-01-27T11:20:30.918Z,24.8
2023-01-27T11:26:05.990Z,24.6
2023-01-27T11:31:30.588Z,24.9
2023-01-27T11:36:53.133Z,24.9
2023-01-27T11:42:30.359Z,24.4
2023-01-27T11:47:52.614Z,24
2023-01-27T11:53:15.390Z,23.9
2023-01-27T11:58:38.211Z,23.6
2023-01-27T12:04:02.436Z,23.8
2023-01-27T12:09:25.323Z,24.1
2023-01-27T12:14:51.204Z,24.6
2023-01-27T12:19:58.757Z,24.6
2023-01-27T12:25:22.100Z,24.1
2023-01-27T12:30:44.724Z,23.8
2023-01-27T12:36:08.418Z,23.6
2023-01-27T12:41:31.472Z,23.4
2023-01-27T12:46:56.128Z,23.4
2023-01-27T12:52:18.886Z,23.8
2023-01-27T12:57:41.198Z,24.1
2023-01-27T13:03:07.429Z,24.1
2023-01-27T13:08:30.092Z,23.8
2023-01-27T13:13:53.130Z,24.3
2023-01-27T13:19:16.511Z,24.4
2023-01-27T13:24:08.286Z,24.1
2023-01-27T13:29:25.943Z,23.7
2023-01-27T13:34:50.452Z,23.4
2023-01-27T13:39:57.642Z,23.2
2023-01-27T13:45:20.864Z,23
2023-01-27T13:50:28.867Z,22.9
2023-01-27T13:55:38.962Z,22.8
2023-01-27T14:01:01.938Z,22.7
2023-01-27T14:06:25.568Z,22.6
2023-01-27T14:11:34.315Z,22.4
2023-01-27T14:16:54.861Z,22.4
2023-01-27T14:22:17.119Z,22.3
2023-01-27T14:27:41.106Z,22.2
2023-01-27T14:33:04.164Z,22.1
2023-01-27T14:38:26.660Z,21.9
2023-01-27T14:43:50.362Z,21.6
2023-01-27T14:49:35.259Z,21.3
2023-01-27T14:54:58.474Z,21.1
2023-01-27T15:00:21.519Z,20.8
2023-01-27T15:05:45.921Z,20.5
2023-01-27T15:11:08.664Z,20.4
2023-01-27T15:16:15.632Z,20.3
2023-01-27T15:21:38.372Z,20.3
2023-01-27T15:27:00.960Z,20.2
2023-01-27T15:32:24.789Z,20.1
2023-01-27T15:37:48.420Z,20.1
2023-01-27T15:43:10.333Z,20.1
2023-01-27T15:48:33.323Z,20.1
2023-01-27T15:53:58.064Z,20.8
2023-01-27T15:59:20.773Z,21.5
2023-01-27T16:04:48.779Z,22.2
2023-01-27T16:10:11.731Z,22.7
2023-01-27T16:15:34.934Z,23.1
2023-01-27T16:20:42.236Z,23.4
2023-01-27T16:26:05.770Z,23.6
2023-01-27T16:31:28.322Z,23.9
2023-01-27T16:36:51.641Z,24.2
2023-01-27T16:42:14.197Z,24.4
2023-01-27T16:47:50.231Z,24.7
2023-01-27T16:53:26.498Z,24.9
2023-01-27T16:59:02.632Z,25.2
2023-01-27T17:04:36.361Z,25.5
2023-01-27T17:10:00.228Z,25.9
2023-01-27T17:15:53.692Z,26.1
2023-01-27T17:21:26.851Z,26.3
2023-01-27T17:26:50.993Z,26.4
2023-01-27T17:32:18.260Z,26.5
2023-01-27T17:37:54.435Z,26.7
2023-01-27T17:43:22.170Z,26.8
2023-01-27T17:48:51.277Z,26.9
2023-01-27T17:54:21.129Z,27.1
2023-01-27T17:59:36.124Z,27.1
2023-01-27T18:04:48.574Z,27.2
2023-01-27T18:10:14.314Z,27.3
2023-01-27T18:15:42.816Z,27.4
2023-01-27T18:21:11.188Z,27.4
2023-01-27T18:26:43.255Z,27.5
2023-01-27T18:31:54.987Z,27.6
2023-01-27T18:42:44.310Z,28.1
2023-01-27T18:48:25.369Z,28.3
2023-01-27T18:54:06.617Z,28.4
2023-01-27T18:59:46.247Z,28.5
2023-01-27T19:05:25.122Z,28.6
2023-01-27T19:10:58.290Z,28.6
2023-01-27T19:16:26.092Z,28.6
2023-01-27T19:21:53.684Z,28.8
2023-01-27T19:26:55.174Z,28.8
2023-01-27T19:32:09.729Z,28.9
2023-01-27T19:37:38.561Z,29.1
2023-01-27T19:43:09.564Z,29.1
2023-01-27T19:48:37.703Z,29.1
2023-01-27T19:54:05.447Z,29.2
2023-01-27T19:59:32.156Z,29.1
2023-01-27T20:05:02.753Z,29.2
2023-01-27T20:10:31.597Z,29.3
2023-01-27T20:15:58.968Z,29.1
2023-01-27T20:21:27.687Z,29.1
2023-01-27T20:26:55.571Z,29.1
2023-01-27T20:32:19.564Z,29.1
2023-01-27T20:37:29.912Z,29.1
2023-01-27T20:42:38.701Z,29
2023-01-27T20:48:15.057Z,28.9
2023-01-27T20:53:38.110Z,28.8
2023-01-27T20:59:00.990Z,28.8
2023-01-27T21:04:23.705Z,28.6
2023-01-27T21:09:47.331Z,28.5
2023-01-27T21:15:10.214Z,28.4
2023-01-27T21:25:41.312Z,27.3
2023-01-27T21:30:51.538Z,26.8
2023-01-27T21:35:59.265Z,26.8
2023-01-27T21:41:22.088Z,27.1
2023-01-27T21:46:45.119Z,27.1
2023-01-27T21:52:07.723Z,26.5
2023-01-27T21:57:30.942Z,26.1
2023-01-27T22:02:55.391Z,25.9
2023-01-27T22:08:18.689Z,26.3
2023-01-27T22:13:42.340Z,26.4
2023-01-27T22:18:49.427Z,25.9
2023-01-27T22:23:55.302Z,25.6
2023-01-27T22:29:17.291Z,25.4
2023-01-27T22:34:39.945Z,25.8
2023-01-27T22:40:03.662Z,26
2023-01-27T22:45:26.469Z,25.6
2023-01-27T22:50:49.041Z,25.3
2023-01-27T22:56:10.965Z,25.1
2023-01-27T23:01:33.582Z,25.4
2023-01-27T23:06:57.013Z,25.7
2023-01-27T23:12:19.009Z,25.4
2023-01-27T23:17:42.397Z,25.2
2023-01-27T23:23:05.203Z,25.6
2023-01-27T23:28:27.552Z,25.4
2023-01-27T23:33:57.474Z,25.1
2023-01-27T23:39:38.327Z,25.3
2023-01-27T23:45:00.513Z,25.4
2023-01-27T23:50:23.025Z,25.1
2023-01-27T23:55:46.146Z,25.1
